Ralston Corner, Vermont
Current Conditions -  °F | °C
As of 1:35 AM on Saturday 20 Dec 2014 (Local Time) from KCDA Reporting Station
Clear Clear  
Wind Chill: 14°   Ceiling: Unl
Heat Index: 14°   Visibility: 10mi
Dew Point: 10°   Wind: 3mph
Humidity: 85%   Direction: 260°W
Pressure: 30.19"   Gusts: NA
Location:  44.4417°N, 71.859°W
Report Text: KCDA 200635Z AUTO 26003KT 10SM CLR M10/M12 A3019 RMK AO2 T11011122
Loading
Personal Weather Stations






























Interactive Weather Map New forecast layout! Learn more

10-Day Weather Forecast

Advertisements
Track Severe Weather on mobile